Time;durP1;ratioP1;P1;durP2;ratioP2;P2;SDS_P1;SDS_P2;PMS_P1;PMS_P2;Temp;Humidity;BMP_temperature;BMP_pressure;BME280_temperature;BME280_humidity;BME280_pressure;Samples;Min_cycle;Max_cycle;Signal;HPM_P1;HPM_P2
2022/08/10 00:00:30;;;;;;;1.60;1.00;;;19.60;99.90;;;;;;5087974;28;20025;-75
2022/08/10 00:02:59;;;;;;;2.00;0.95;;;19.50;99.90;;;;;;5087127;28;20435;-74
2022/08/10 00:05:26;;;;;;;0.98;0.90;;;19.50;99.90;;;;;;5088622;28;20025;-74
2022/08/10 00:07:52;;;;;;;1.02;0.90;;;19.50;99.90;;;;;;5088591;28;20334;-75
2022/08/10 00:10:19;;;;;;;2.42;1.10;;;19.40;99.90;;;;;;5087474;28;20197;-74
2022/08/10 00:12:45;;;;;;;2.97;1.25;;;19.40;99.90;;;;;;5069891;28;20021;-74
2022/08/10 00:15:13;;;;;;;1.25;1.02;;;19.30;99.90;;;;;;5086603;28;20036;-74
2022/08/10 00:17:39;;;;;;;3.30;1.00;;;19.30;99.90;;;;;;5088625;28;20021;-75
2022/08/10 00:20:06;;;;;;;2.78;1.10;;;19.30;99.90;;;;;;5088655;28;20027;-75
2022/08/10 00:22:32;;;;;;;2.60;1.08;;;19.30;99.90;;;;;;5088621;28;20024;-75
2022/08/10 00:24:58;;;;;;;1.30;1.20;;;19.30;99.90;;;;;;5088873;28;20048;-74
2022/08/10 00:27:24;;;;;;;1.90;0.93;;;19.20;99.90;;;;;;5088042;28;20091;-75
2022/08/10 00:29:50;;;;;;;3.35;1.10;;;19.20;99.90;;;;;;5089088;28;20020;-74
2022/08/10 00:32:15;;;;;;;2.05;1.00;;;19.20;99.90;;;;;;5088856;28;20059;-74
2022/08/10 00:34:41;;;;;;;2.20;1.20;;;19.20;99.90;;;;;;5087859;28;20033;-74
2022/08/10 00:37:07;;;;;;;1.08;1.05;;;19.20;99.90;;;;;;5077873;28;20021;-75
2022/08/10 00:39:32;;;;;;;2.28;1.10;;;19.10;99.90;;;;;;5084957;28;20066;-75
2022/08/10 00:41:58;;;;;;;1.05;1.00;;;19.10;99.90;;;;;;5068887;28;20021;-74
2022/08/10 00:44:23;;;;;;;1.95;1.25;;;19.10;99.90;;;;;;5088091;28;20016;-74
2022/08/10 00:46:49;;;;;;;2.35;1.23;;;19.00;99.90;;;;;;5088940;28;20024;-75
2022/08/10 00:49:15;;;;;;;1.50;1.38;;;19.00;99.90;;;;;;5086319;28;20032;-74
2022/08/10 00:51:41;;;;;;;1.55;1.10;;;19.00;99.90;;;;;;5087395;28;20055;-74
2022/08/10 00:54:07;;;;;;;1.45;1.23;;;19.00;99.90;;;;;;5086186;28;20040;-74
2022/08/10 00:56:33;;;;;;;1.58;1.20;;;18.90;99.90;;;;;;5086579;28;20031;-74
2022/08/10 00:58:59;;;;;;;1.83;1.33;;;18.90;99.90;;;;;;5086594;28;20063;-74
2022/08/10 01:01:24;;;;;;;2.70;1.35;;;18.90;99.90;;;;;;5088638;28;20035;-75
2022/08/10 01:03:50;;;;;;;2.00;1.10;;;18.90;99.90;;;;;;5088760;28;20031;-75
2022/08/10 01:06:28;;;;;;;3.22;1.42;;;18.80;99.90;;;;;;5089867;28;20506;-74
2022/08/10 01:09:19;;;;;;;2.42;1.63;;;18.90;99.90;;;;;;5091258;28;20077;-76
2022/08/10 01:12:02;;;;;;;2.78;1.33;;;18.80;99.90;;;;;;5090568;28;20077;-75
2022/08/10 01:14:36;;;;;;;3.03;1.50;;;18.80;99.90;;;;;;5091055;28;20029;-75
2022/08/10 01:17:15;;;;;;;1.58;1.45;;;18.70;99.90;;;;;;5086120;28;20111;-75
2022/08/10 01:19:47;;;;;;;1.40;1.30;;;18.70;99.90;;;;;;5089709;28;20380;-76
2022/08/10 01:22:18;;;;;;;2.35;1.63;;;18.70;99.90;;;;;;5086968;28;20024;-74
2022/08/10 01:24:44;;;;;;;1.50;1.40;;;18.60;99.90;;;;;;5087347;28;20080;-76
2022/08/10 01:27:32;;;;;;;1.50;1.40;;;18.60;99.90;;;;;;5087162;28;20017;-75
2022/08/10 01:30:07;;;;;;;3.40;1.55;;;18.60;99.90;;;;;;5073428;28;20035;-74
2022/08/10 01:32:50;;;;;;;1.60;1.50;;;18.60;99.90;;;;;;5091307;28;20021;-74
2022/08/10 01:35:34;;;;;;;3.60;1.60;;;18.60;99.90;;;;;;5087629;28;20566;-75
2022/08/10 01:38:13;;;;;;;2.28;1.48;;;18.50;99.90;;;;;;5078894;28;20078;-76
2022/08/10 01:40:47;;;;;;;2.10;1.70;;;18.50;99.90;;;;;;5080097;28;20037;-74
2022/08/10 01:43:16;;;;;;;2.90;1.70;;;18.50;99.90;;;;;;5079897;28;20027;-73
2022/08/10 01:45:44;;;;;;;2.90;1.60;;;18.40;99.90;;;;;;5085375;28;20016;-73
2022/08/10 01:48:29;;;;;;;1.73;1.52;;;18.40;99.90;;;;;;5087544;28;20028;-74
2022/08/10 01:51:01;;;;;;;1.55;1.45;;;18.40;99.90;;;;;;5083261;28;20032;-74
2022/08/10 01:53:41;;;;;;;2.05;1.60;;;18.30;99.90;;;;;;5074701;28;20048;-74
2022/08/10 01:56:11;;;;;;;3.67;1.60;;;18.30;99.90;;;;;;5084759;28;20024;-75
2022/08/10 01:58:37;;;;;;;2.90;1.83;;;18.30;99.90;;;;;;5080136;28;20040;-74
2022/08/10 02:01:04;;;;;;;4.10;1.80;;;18.30;99.90;;;;;;5085588;28;20020;-74
2022/08/10 02:03:32;;;;;;;2.33;1.70;;;18.30;99.90;;;;;;5084090;28;20475;-75
2022/08/10 02:05:59;;;;;;;1.98;1.77;;;18.30;99.90;;;;;;5083007;28;20620;-76
2022/08/10 02:08:27;;;;;;;2.00;1.50;;;18.20;99.90;;;;;;5083394;28;20017;-73
2022/08/10 02:10:54;;;;;;;3.72;1.70;;;18.20;99.90;;;;;;5085294;28;20012;-74
2022/08/10 02:13:21;;;;;;;2.13;1.92;;;18.20;99.90;;;;;;5087043;28;20325;-74
2022/08/10 02:15:50;;;;;;;2.15;1.95;;;18.20;99.90;;;;;;5086506;28;20028;-74
2022/08/10 02:18:18;;;;;;;2.80;1.92;;;18.20;99.90;;;;;;5083316;28;20539;-74
2022/08/10 02:20:47;;;;;;;2.75;2.03;;;18.10;99.90;;;;;;5083347;28;20080;-73
2022/08/10 02:23:16;;;;;;;2.25;2.03;;;18.10;99.90;;;;;;5081915;28;20025;-75
2022/08/10 02:25:43;;;;;;;4.32;2.20;;;18.10;99.90;;;;;;5075354;28;20029;-74
2022/08/10 02:28:13;;;;;;;2.22;2.03;;;18.10;99.90;;;;;;5084637;28;20020;-75
2022/08/10 02:30:40;;;;;;;2.65;2.15;;;18.10;99.90;;;;;;5084226;28;20059;-75
2022/08/10 02:33:06;;;;;;;1.80;1.70;;;18.00;99.90;;;;;;5082697;28;20021;-75
2022/08/10 02:35:33;;;;;;;2.50;2.00;;;18.00;99.90;;;;;;5081946;28;20062;-74
2022/08/10 02:38:04;;;;;;;2.80;1.98;;;18.00;99.90;;;;;;5083624;28;20027;-74
2022/08/10 02:40:35;;;;;;;4.32;2.00;;;18.00;99.90;;;;;;5071980;28;20442;-74
2022/08/10 02:43:09;;;;;;;5.05;2.15;;;17.90;99.90;;;;;;5085241;28;20013;-75
2022/08/10 02:45:41;;;;;;;2.75;2.20;;;17.90;99.90;;;;;;5081210;28;20452;-75
2022/08/10 02:48:26;;;;;;;3.85;2.03;;;17.90;99.90;;;;;;5085003;28;20024;-74
2022/08/10 02:51:04;;;;;;;3.10;2.28;;;17.80;99.90;;;;;;5083813;28;20036;-74
2022/08/10 02:53:36;;;;;;;2.28;2.08;;;17.80;99.90;;;;;;5082786;28;20055;-74
2022/08/10 02:56:19;;;;;;;5.07;2.45;;;17.80;99.90;;;;;;5080950;28;20040;-74
2022/08/10 02:58:52;;;;;;;4.80;2.13;;;17.80;99.90;;;;;;5084586;28;20028;-74
2022/08/10 03:01:21;;;;;;;2.30;2.10;;;17.80;99.90;;;;;;5084771;28;20530;-74
2022/08/10 03:03:51;;;;;;;3.97;2.40;;;17.80;99.90;;;;;;5065343;28;20024;-73
2022/08/10 03:06:20;;;;;;;3.70;2.40;;;17.80;99.90;;;;;;5082573;28;20042;-74
2022/08/10 03:08:47;;;;;;;2.28;2.08;;;17.70;99.90;;;;;;5082562;28;20024;-74
2022/08/10 03:11:21;;;;;;;2.83;2.30;;;17.70;99.90;;;;;;5082478;28;20040;-74
2022/08/10 03:13:50;;;;;;;3.97;2.58;;;17.70;99.90;;;;;;5080585;28;20480;-74
2022/08/10 03:16:17;;;;;;;6.03;2.70;;;17.70;99.90;;;;;;5080264;28;20008;-73
2022/08/10 03:18:46;;;;;;;4.40;2.40;;;17.70;99.90;;;;;;5082386;28;20029;-73
2022/08/10 03:21:14;;;;;;;3.70;2.50;;;17.60;99.90;;;;;;5062987;28;20021;-74
2022/08/10 03:23:42;;;;;;;3.35;2.60;;;17.60;99.90;;;;;;5083147;28;20044;-73
2022/08/10 03:26:08;;;;;;;3.47;2.17;;;17.60;99.90;;;;;;5081700;28;20065;-74
2022/08/10 03:28:35;;;;;;;4.32;2.67;;;17.60;99.90;;;;;;5081921;28;20020;-75
2022/08/10 03:31:01;;;;;;;3.15;2.65;;;17.60;99.90;;;;;;5082486;28;20052;-75
2022/08/10 03:33:32;;;;;;;3.55;2.42;;;17.60;99.90;;;;;;5081918;28;20443;-74
2022/08/10 03:35:58;;;;;;;4.53;2.90;;;17.60;99.90;;;;;;5082282;28;20040;-74
2022/08/10 03:38:24;;;;;;;2.65;2.35;;;17.60;99.90;;;;;;5079760;28;20481;-74
2022/08/10 03:40:51;;;;;;;2.85;2.55;;;17.50;99.90;;;;;;5079699;28;20024;-73
2022/08/10 03:43:19;;;;;;;3.10;2.80;;;17.50;99.90;;;;;;5061766;28;20035;-74
2022/08/10 03:45:48;;;;;;;4.28;2.90;;;17.50;99.90;;;;;;5080203;28;20080;-74
2022/08/10 03:48:17;;;;;;;4.85;2.92;;;17.50;99.90;;;;;;5080654;28;20020;-73
2022/08/10 03:50:42;;;;;;;3.67;3.05;;;17.50;99.90;;;;;;5081092;28;20017;-73
2022/08/10 03:53:08;;;;;;;5.07;3.05;;;17.50;99.90;;;;;;5082814;28;20455;-74
2022/08/10 03:55:35;;;;;;;3.90;2.90;;;17.50;99.90;;;;;;5083529;28;20037;-75
2022/08/10 03:58:01;;;;;;;3.38;3.08;;;17.40;99.90;;;;;;5082103;28;20017;-74
2022/08/10 04:00:27;;;;;;;5.95;2.90;;;17.40;99.90;;;;;;5082822;28;20024;-74
2022/08/10 04:02:56;;;;;;;3.38;3.05;;;17.40;99.90;;;;;;5084834;28;20016;-74
2022/08/10 04:05:22;;;;;;;5.18;3.17;;;17.40;99.90;;;;;;5085096;28;20028;-74
2022/08/10 04:07:47;;;;;;;4.38;2.92;;;17.40;99.90;;;;;;5087035;28;20016;-74
2022/08/10 04:10:13;;;;;;;4.25;3.38;;;17.40;99.90;;;;;;5087496;28;20028;-74
2022/08/10 04:12:39;;;;;;;3.97;3.33;;;17.40;99.90;;;;;;5085603;28;20037;-74
2022/08/10 04:15:05;;;;;;;3.75;3.17;;;17.30;99.90;;;;;;5081088;28;20039;-75
2022/08/10 04:17:31;;;;;;;4.05;3.08;;;17.30;99.90;;;;;;5080585;28;20035;-74
2022/08/10 04:19:58;;;;;;;6.43;3.65;;;17.30;99.90;;;;;;5080899;28;20024;-74
2022/08/10 04:22:26;;;;;;;6.07;3.45;;;17.30;99.90;;;;;;5088474;28;20024;-74
2022/08/10 04:24:58;;;;;;;6.38;3.65;;;17.30;99.90;;;;;;5089348;28;20182;-74
2022/08/10 04:27:24;;;;;;;5.38;3.78;;;17.30;99.90;;;;;;5089876;28;20029;-75
2022/08/10 04:29:50;;;;;;;4.25;3.70;;;17.30;99.90;;;;;;5085472;28;20033;-75
2022/08/10 04:32:19;;;;;;;4.25;3.70;;;17.30;99.90;;;;;;5066178;28;20445;-74
2022/08/10 04:34:46;;;;;;;5.75;3.90;;;17.30;99.90;;;;;;5086881;28;20036;-74
2022/08/10 04:37:13;;;;;;;4.65;3.72;;;17.30;99.90;;;;;;5091046;28;20008;-75
2022/08/10 04:39:39;;;;;;;7.57;4.05;;;17.20;99.90;;;;;;5089962;28;20035;-74
2022/08/10 04:42:05;;;;;;;7.53;3.90;;;17.20;99.90;;;;;;5089428;28;20036;-75
2022/08/10 04:44:32;;;;;;;8.43;4.30;;;17.30;99.90;;;;;;5089045;28;20063;-74
2022/08/10 04:46:57;;;;;;;8.23;4.30;;;17.30;99.90;;;;;;5092018;28;20060;-75
2022/08/10 04:49:23;;;;;;;8.52;4.47;;;17.30;99.90;;;;;;5093125;28;20039;-75
2022/08/10 04:51:48;;;;;;;7.03;4.03;;;17.30;99.90;;;;;;5093365;28;20028;-74
2022/08/10 04:54:14;;;;;;;5.57;4.40;;;17.30;99.90;;;;;;5092503;28;20111;-74
2022/08/10 04:56:40;;;;;;;9.45;4.78;;;17.20;99.90;;;;;;5092187;28;20024;-76
2022/08/10 04:59:08;;;;;;;6.88;4.65;;;17.30;99.90;;;;;;5092668;28;20078;-75
2022/08/10 05:01:34;;;;;;;9.07;4.65;;;17.30;99.90;;;;;;5093441;28;20020;-74
2022/08/10 05:04:00;;;;;;;6.35;4.68;;;17.30;99.90;;;;;;5092137;28;20039;-74
2022/08/10 05:06:26;;;;;;;7.15;4.78;;;17.30;99.90;;;;;;5092153;28;20032;-74
2022/08/10 05:08:51;;;;;;;7.97;4.78;;;17.30;99.90;;;;;;5093976;28;20079;-75
2022/08/10 05:11:17;;;;;;;6.28;5.13;;;17.30;99.90;;;;;;5093282;28;20024;-75
2022/08/10 05:13:42;;;;;;;6.88;4.97;;;17.30;99.90;;;;;;5093186;28;20017;-75
2022/08/10 05:16:08;;;;;;;7.22;4.85;;;17.30;99.90;;;;;;5092062;28;20016;-75
2022/08/10 05:18:33;;;;;;;7.63;5.28;;;17.30;99.90;;;;;;5093275;28;20074;-77
2022/08/10 05:20:59;;;;;;;7.40;5.55;;;17.40;99.90;;;;;;5090010;28;20035;-74
2022/08/10 05:23:24;;;;;;;8.88;5.63;;;17.40;99.90;;;;;;5089276;28;20049;-76
2022/08/10 05:25:50;;;;;;;8.73;5.63;;;17.40;99.90;;;;;;5091613;28;20037;-75
2022/08/10 05:28:16;;;;;;;7.65;5.75;;;17.40;99.90;;;;;;5088481;28;20028;-74
2022/08/10 05:30:41;;;;;;;9.13;5.80;;;17.40;99.90;;;;;;5091148;28;20024;-74
2022/08/10 05:33:07;;;;;;;8.77;5.97;;;17.50;99.90;;;;;;5083592;28;20025;-74
2022/08/10 05:35:33;;;;;;;9.55;6.22;;;17.50;99.90;;;;;;5088291;28;20036;-75
2022/08/10 05:38:00;;;;;;;11.95;5.90;;;17.50;99.90;;;;;;5088603;28;20025;-74
2022/08/10 05:40:26;;;;;;;8.65;5.80;;;17.50;99.90;;;;;;5088205;28;20390;-75
2022/08/10 05:42:52;;;;;;;10.60;5.90;;;17.60;99.90;;;;;;5083484;28;20031;-76
2022/08/10 05:45:20;;;;;;;11.00;6.47;;;17.60;99.90;;;;;;5084041;28;20021;-75
2022/08/10 05:47:47;;;;;;;7.55;5.78;;;17.60;99.90;;;;;;5082530;28;20016;-77
2022/08/10 05:50:15;;;;;;;8.38;6.05;;;17.70;99.90;;;;;;5083607;28;20376;-76
2022/08/10 05:52:41;;;;;;;7.88;6.18;;;17.70;99.90;;;;;;5079379;28;20051;-75
2022/08/10 05:55:07;;;;;;;11.68;6.22;;;17.70;99.90;;;;;;5082815;28;20078;-75
2022/08/10 05:57:35;;;;;;;9.48;6.32;;;17.80;99.90;;;;;;5082544;28;20040;-75
2022/08/10 06:00:06;;;;;;;9.82;6.18;;;17.80;99.90;;;;;;5084061;28;20017;-74
2022/08/10 06:02:35;;;;;;;8.18;6.43;;;17.80;99.90;;;;;;5080404;28;20054;-74
2022/08/10 06:05:16;;;;;;;9.57;6.43;;;17.80;99.90;;;;;;5081819;28;20353;-76
2022/08/10 06:07:53;;;;;;;8.30;6.05;;;17.90;99.90;;;;;;5063631;28;20116;-75
2022/08/10 06:10:20;;;;;;;10.85;6.95;;;17.90;99.90;;;;;;5083311;28;20024;-76
2022/08/10 06:14:59;;;;;;;8.55;6.13;;;18.00;99.90;;;;;;5069545;28;20031;-78
2022/08/10 06:15:39;;;;;;;10.05;6.65;;;18.00;99.90;;;;;;5088081;28;20044;-76
2022/08/10 06:18:05;;;;;;;11.07;7.20;;;18.00;99.90;;;;;;5073582;28;20082;-75
2022/08/10 06:20:32;;;;;;;13.65;7.57;;;18.10;99.90;;;;;;5067191;28;20103;-75
2022/08/10 06:23:02;;;;;;;12.02;7.68;;;18.10;99.90;;;;;;5068504;28;20430;-76
2022/08/10 06:25:31;;;;;;;12.10;7.30;;;18.20;99.90;;;;;;5068434;28;20222;-74
2022/08/10 06:28:01;;;;;;;10.85;6.72;;;18.20;99.90;;;;;;5061539;28;20425;-74
2022/08/10 06:30:28;;;;;;;10.50;7.57;;;18.20;99.90;;;;;;5076417;28;20067;-76
2022/08/10 06:32:55;;;;;;;9.77;6.75;;;18.30;99.90;;;;;;5068780;28;20503;-75
2022/08/10 06:35:26;;;;;;;10.68;6.82;;;18.30;99.90;;;;;;5073076;28;20028;-75
2022/08/10 06:37:54;;;;;;;12.18;6.90;;;18.30;99.90;;;;;;5071838;28;20025;-75
2022/08/10 06:40:20;;;;;;;12.07;7.18;;;18.40;99.90;;;;;;5066966;28;20031;-75
2022/08/10 06:42:47;;;;;;;8.93;6.38;;;18.40;99.90;;;;;;5066655;28;20512;-76
2022/08/10 06:45:21;;;;;;;11.18;7.40;;;18.50;99.90;;;;;;5066434;28;20024;-74
2022/08/10 06:48:16;;;;;;;11.45;6.65;;;18.50;99.90;;;;;;5066716;28;20082;-76
2022/08/10 06:50:49;;;;;;;11.15;6.50;;;18.60;99.90;;;;;;5056433;28;20436;-76
2022/08/10 06:53:17;;;;;;;9.73;6.97;;;18.60;99.90;;;;;;5063692;28;20021;-75
2022/08/10 06:55:56;;;;;;;9.48;5.95;;;18.70;99.90;;;;;;5056655;28;20033;-75
2022/08/10 06:58:25;;;;;;;9.88;6.47;;;18.80;99.90;;;;;;5070310;28;20016;-75
2022/08/10 07:00:51;;;;;;;9.25;6.53;;;18.80;99.90;;;;;;5071687;28;20579;-75
2022/08/10 07:03:19;;;;;;;11.60;6.35;;;18.90;99.90;;;;;;5066994;28;20064;-75
2022/08/10 07:05:49;;;;;;;10.55;6.90;;;19.00;99.90;;;;;;5058130;28;20040;-75
2022/08/10 07:08:20;;;;;;;9.07;6.57;;;19.10;99.90;;;;;;5062213;28;20485;-75
2022/08/10 07:10:46;;;;;;;10.70;6.68;;;19.20;99.90;;;;;;5046944;28;20020;-75
2022/08/10 07:13:15;;;;;;;10.15;6.63;;;19.30;99.90;;;;;;5068133;28;20115;-75
2022/08/10 07:15:43;;;;;;;13.18;6.38;;;19.40;99.90;;;;;;5070626;28;20107;-75
2022/08/10 07:18:10;;;;;;;11.40;5.80;;;19.50;99.90;;;;;;5070865;28;20103;-75
2022/08/10 07:20:36;;;;;;;12.00;6.47;;;19.70;99.90;;;;;;5060168;28;20037;-75
2022/08/10 07:23:02;;;;;;;8.32;5.70;;;19.70;99.90;;;;;;5064536;28;20013;-75
2022/08/10 07:25:29;;;;;;;8.77;5.82;;;19.90;99.90;;;;;;5044548;28;20028;-75
2022/08/10 07:27:57;;;;;;;12.55;6.13;;;20.00;99.90;;;;;;5058785;28;20044;-75
2022/08/10 07:30:27;;;;;;;9.93;6.70;;;20.10;99.90;;;;;;5070806;28;20081;-75
2022/08/10 07:32:54;;;;;;;9.32;5.25;;;20.20;99.90;;;;;;5070549;28;20368;-75
2022/08/10 07:35:21;;;;;;;9.00;5.78;;;20.30;99.90;;;;;;5064869;28;20039;-75
2022/08/10 07:37:50;;;;;;;9.32;5.50;;;20.40;99.90;;;;;;5069443;28;20067;-75
2022/08/10 07:40:19;;;;;;;8.88;6.05;;;20.50;99.90;;;;;;5071343;28;20063;-75
2022/08/10 07:42:47;;;;;;;8.38;5.10;;;20.60;99.90;;;;;;5070230;28;20017;-75
2022/08/10 07:45:13;;;;;;;7.68;5.35;;;20.70;99.90;;;;;;5070549;28;20041;-75
2022/08/10 07:47:50;;;;;;;6.88;5.32;;;20.90;99.90;;;;;;5068637;28;20040;-75
2022/08/10 07:50:19;;;;;;;8.98;5.10;;;21.00;99.90;;;;;;5060214;28;20035;-75
2022/08/10 07:52:46;;;;;;;8.48;5.25;;;21.10;99.90;;;;;;5073263;28;20087;-75
2022/08/10 07:55:15;;;;;;;8.65;5.10;;;21.20;99.90;;;;;;5075798;28;20021;-75
2022/08/10 07:57:45;;;;;;;10.32;5.30;;;21.40;99.90;;;;;;5073629;28;20028;-74
2022/08/10 08:00:11;;;;;;;7.68;4.70;;;21.50;99.90;;;;;;5073852;28;20025;-75
2022/08/10 08:02:47;;;;;;;5.80;4.72;;;21.70;99.90;;;;;;5067323;28;20499;-75
2022/08/10 08:05:13;;;;;;;7.32;4.68;;;21.80;99.90;;;;;;5061135;28;20103;-76
2022/08/10 08:07:41;;;;;;;9.32;4.38;;;22.00;99.90;;;;;;5068129;28;20125;-75
2022/08/10 08:10:13;;;;;;;6.72;4.15;;;22.10;99.90;;;;;;5071283;28;20035;-75
2022/08/10 08:12:41;;;;;;;9.00;4.60;;;22.30;99.90;;;;;;5066892;28;20418;-75
2022/08/10 08:15:09;;;;;;;4.82;4.10;;;22.50;99.90;;;;;;5069577;28;20032;-74
2022/08/10 08:17:38;;;;;;;7.25;4.40;;;22.60;99.90;;;;;;5069899;28;20032;-75
2022/08/10 08:20:05;;;;;;;8.43;4.40;;;22.80;99.90;;;;;;5051840;28;20032;-75
2022/08/10 08:22:31;;;;;;;8.57;4.10;;;22.90;99.90;;;;;;5072667;28;20024;-75
2022/08/10 08:24:58;;;;;;;6.97;3.70;;;23.10;99.90;;;;;;5068963;28;20090;-75
2022/08/10 08:27:26;;;;;;;9.50;3.95;;;23.20;99.90;;;;;;5072171;28;20415;-74
2022/08/10 08:29:52;;;;;;;5.15;4.05;;;23.30;99.90;;;;;;5073810;28;20067;-75
2022/08/10 08:32:21;;;;;;;7.18;3.20;;;23.50;99.90;;;;;;5074112;28;20044;-75
2022/08/10 08:34:52;;;;;;;5.95;2.95;;;23.70;99.90;;;;;;5071344;28;20090;-75
2022/08/10 08:37:19;;;;;;;7.43;3.10;;;23.80;99.90;;;;;;5073637;28;20029;-75
2022/08/10 08:39:46;;;;;;;4.43;3.60;;;24.00;99.90;;;;;;5073517;28;20017;-75
2022/08/10 08:42:24;;;;;;;5.47;3.10;;;24.10;99.90;;;;;;5073757;28;20032;-75
2022/08/10 08:45:04;;;;;;;4.70;2.35;;;24.30;99.90;;;;;;5069932;28;20012;-75
2022/08/10 08:47:47;;;;;;;6.00;3.25;;;24.50;99.90;;;;;;5073390;28;20048;-75
2022/08/10 08:50:18;;;;;;;4.68;2.72;;;24.60;99.70;;;;;;5072500;28;20035;-75
2022/08/10 08:52:55;;;;;;;5.00;2.13;;;24.70;99.40;;;;;;5079841;28;20024;-76
2022/08/10 08:55:32;;;;;;;6.22;2.28;;;24.90;98.40;;;;;;5082128;28;20040;-75
2022/08/10 08:58:00;;;;;;;6.20;2.97;;;25.00;97.80;;;;;;5072053;28;20052;-75
2022/08/10 09:00:37;;;;;;;6.03;2.80;;;25.10;97.20;;;;;;5055702;28;20029;-75
2022/08/10 09:03:18;;;;;;;3.50;2.25;;;25.20;96.60;;;;;;5073187;28;20024;-75
2022/08/10 09:06:10;;;;;;;5.85;2.28;;;25.30;96.10;;;;;;5074067;28;20028;-75
2022/08/10 09:08:55;;;;;;;4.20;2.10;;;25.40;95.60;;;;;;5070693;28;20041;-75
2022/08/10 09:11:44;;;;;;;3.33;2.08;;;25.60;94.50;;;;;;5072327;28;20256;-75
2022/08/10 09:14:16;;;;;;;4.50;2.20;;;25.80;93.80;;;;;;5070558;28;20526;-75
2022/08/10 09:17:08;;;;;;;6.10;2.30;;;25.90;93.20;;;;;;5054131;28;20032;-77
2022/08/10 09:19:49;;;;;;;3.30;1.98;;;26.20;92.00;;;;;;5073786;28;20013;-75
2022/08/10 09:22:36;;;;;;;3.60;2.10;;;26.30;91.30;;;;;;5055276;28;20029;-75
2022/08/10 09:25:31;;;;;;;3.35;2.17;;;26.40;90.90;;;;;;5075048;28;20078;-75
2022/08/10 09:28:18;;;;;;;4.68;1.90;;;26.50;90.40;;;;;;5056951;28;20113;-75
2022/08/10 09:30:52;;;;;;;5.25;1.77;;;26.50;89.50;;;;;;5061274;28;20025;-75
2022/08/10 09:33:33;;;;;;;4.25;1.60;;;26.60;88.60;;;;;;5074569;28;20016;-75
2022/08/10 09:36:20;;;;;;;2.22;1.60;;;26.80;86.10;;;;;;5074437;28;20024;-75
2022/08/10 09:39:15;;;;;;;6.13;1.52;;;26.90;83.90;;;;;;5067452;28;20119;-75
2022/08/10 09:41:46;;;;;;;4.53;1.52;;;27.10;81.40;;;;;;5072406;28;20503;-75
2022/08/10 09:44:44;;;;;;;3.15;1.70;;;27.20;81.10;;;;;;5052824;28;20065;-75
2022/08/10 09:47:25;;;;;;;4.55;1.73;;;27.30;79.60;;;;;;5012743;28;20397;-75
2022/08/10 09:50:32;;;;;;;3.75;1.55;;;27.50;77.50;;;;;;5013541;28;20036;-75
2022/08/10 09:53:23;;;;;;;5.57;1.77;;;27.60;75.90;;;;;;5014531;28;20088;-75
2022/08/10 09:55:58;;;;;;;6.97;1.40;;;27.70;74.30;;;;;;5012834;28;20061;-75
2022/08/10 09:58:48;;;;;;;3.38;1.65;;;27.90;73.00;;;;;;5011743;28;20088;-73
2022/08/10 10:01:23;;;;;;;5.05;1.50;;;28.00;72.20;;;;;;5014879;28;20060;-75
2022/08/10 10:04:03;;;;;;;7.15;1.60;;;28.10;71.10;;;;;;5014682;28;20507;-75
2022/08/10 10:06:37;;;;;;;2.17;1.50;;;28.20;68.30;;;;;;5008771;28;20026;-75
2022/08/10 10:09:13;;;;;;;3.47;1.60;;;28.20;68.30;;;;;;5013357;28;20038;-75
2022/08/10 10:12:06;;;;;;;6.25;1.60;;;28.20;69.10;;;;;;5014131;28;20022;-75
2022/08/10 10:15:20;;;;;;;4.07;1.73;;;28.40;67.70;;;;;;4996455;28;20037;-75
2022/08/10 10:18:23;;;;;;;2.15;1.40;;;28.50;67.80;;;;;;5012239;28;20100;-75
2022/08/10 10:20:48;;;;;;;5.57;1.73;;;28.80;66.80;;;;;;5011550;28;20060;-76
2022/08/10 10:23:53;;;;;;;3.03;1.50;;;28.90;65.40;;;;;;5051361;28;20052;-75
2022/08/10 10:26:44;;;;;;;5.10;1.53;;;29.10;64.20;;;;;;4985747;28;20496;-75
2022/08/10 10:29:47;;;;;;;3.75;1.50;;;29.30;62.20;;;;;;4983438;28;20032;-76
2022/08/10 10:32:23;;;;;;;5.05;1.83;;;29.30;61.10;;;;;;4983611;28;20031;-76
2022/08/10 10:35:23;;;;;;;2.67;1.50;;;29.40;60.40;;;;;;4986147;28;20049;-76
2022/08/10 10:37:52;;;;;;;4.68;1.63;;;29.30;59.10;;;;;;4988646;28;20030;-76
2022/08/10 10:40:20;;;;;;;5.35;1.50;;;29.30;59.00;;;;;;4984565;28;20023;-75
2022/08/10 10:42:59;;;;;;;7.35;1.70;;;29.20;58.70;;;;;;4982046;28;20138;-75
2022/08/10 10:45:41;;;;;;;3.15;1.50;;;29.30;58.30;;;;;;4990029;28;20113;-74
2022/08/10 10:48:23;;;;;;;4.78;1.60;;;29.30;58.20;;;;;;4987512;28;20035;-74
2022/08/10 10:51:20;;;;;;;2.08;1.20;;;29.40;57.30;;;;;;4987331;28;20026;-74
2022/08/10 10:54:04;;;;;;;2.95;1.17;;;29.50;56.80;;;;;;4976441;28;20045;-74
2022/08/10 10:56:47;;;;;;;4.22;1.40;;;29.50;56.40;;;;;;4985595;28;20116;-76
2022/08/10 10:59:43;;;;;;;1.98;1.50;;;29.70;56.60;;;;;;4988527;28;20073;-76
2022/08/10 11:02:19;;;;;;;3.83;1.80;;;29.70;55.90;;;;;;5041671;28;20028;-75
2022/08/10 11:05:19;;;;;;;4.22;1.30;;;29.90;55.10;;;;;;5075713;28;20035;-77
2022/08/10 11:08:10;;;;;;;2.38;1.40;;;30.00;54.30;;;;;;5000927;28;20038;-77
2022/08/10 11:10:43;;;;;;;2.53;1.35;;;30.20;54.30;;;;;;4986298;28;20789;-77
2022/08/10 11:13:18;;;;;;;3.10;1.40;;;30.20;53.50;;;;;;4995324;28;20061;-77
2022/08/10 11:16:04;;;;;;;3.78;1.40;;;30.30;53.60;;;;;;4994949;28;20033;-77
2022/08/10 11:18:56;;;;;;;4.10;1.40;;;30.40;54.20;;;;;;4982033;28;20101;-77
2022/08/10 11:21:55;;;;;;;3.47;1.20;;;30.50;53.30;;;;;;4985418;28;20094;-76
2022/08/10 11:24:50;;;;;;;2.97;1.30;;;30.50;53.00;;;;;;4990757;28;20145;-77
2022/08/10 11:27:47;;;;;;;1.55;1.35;;;30.70;53.10;;;;;;4965330;28;20033;-77
2022/08/10 11:30:19;;;;;;;4.30;1.30;;;30.80;53.00;;;;;;4993965;28;20027;-77
2022/08/10 11:32:51;;;;;;;3.03;1.45;;;30.90;53.10;;;;;;4993503;28;20046;-79
2022/08/10 11:35:54;;;;;;;2.60;1.20;;;30.90;52.70;;;;;;4989517;28;20027;-79
2022/08/10 11:38:44;;;;;;;3.78;1.45;;;31.00;52.00;;;;;;4989738;28;20137;-78
2022/08/10 11:41:51;;;;;;;2.38;1.20;;;31.10;52.00;;;;;;5000336;28;20490;-78
2022/08/10 11:44:21;;;;;;;2.85;1.50;;;31.10;52.20;;;;;;4934842;28;20061;-78
2022/08/10 11:46:56;;;;;;;3.95;1.65;;;31.10;52.10;;;;;;4990854;28;20110;-78
2022/08/10 11:49:26;;;;;;;3.53;1.65;;;31.20;52.20;;;;;;4991755;28;20134;-77
2022/08/10 11:51:57;;;;;;;3.20;1.48;;;31.20;52.10;;;;;;4995984;28;20057;-78
2022/08/10 11:54:34;;;;;;;2.03;1.50;;;31.20;51.80;;;;;;4997264;28;20069;-78
2022/08/10 11:57:00;;;;;;;3.78;1.35;;;31.10;52.10;;;;;;4997051;28;20070;-77
2022/08/10 12:02:18;;;;;;;2.97;1.80;;;31.30;51.90;;;;;;4992441;28;20086;-77
2022/08/10 12:04:51;;;;;;;2.75;1.65;;;31.30;52.00;;;;;;4990272;28;20092;-77
2022/08/10 12:07:20;;;;;;;4.72;1.60;;;31.40;51.90;;;;;;4988622;28;20042;-78
2022/08/10 12:09:47;;;;;;;5.65;1.52;;;31.40;52.10;;;;;;4987078;28;20494;-77
2022/08/10 12:12:15;;;;;;;4.80;1.65;;;31.40;52.10;;;;;;4996720;28;20030;-77
2022/08/10 12:15:05;;;;;;;5.15;1.40;;;31.50;51.70;;;;;;4994324;28;20042;-77
2022/08/10 12:17:44;;;;;;;5.75;1.42;;;31.70;51.20;;;;;;5003309;28;20068;-78
2022/08/10 12:20:20;;;;;;;3.90;1.90;;;31.70;51.60;;;;;;5071329;28;20057;-77
2022/08/10 12:23:00;;;;;;;3.20;1.60;;;31.80;51.40;;;;;;5076417;28;20056;-77
2022/08/10 12:25:54;;;;;;;3.80;1.50;;;31.90;51.20;;;;;;5073020;28;20053;-77
2022/08/10 12:28:27;;;;;;;2.10;1.63;;;31.90;50.70;;;;;;5070250;28;20040;-78
2022/08/10 12:30:57;;;;;;;6.65;1.90;;;31.90;51.00;;;;;;5067506;28;20032;-77
2022/08/10 12:33:30;;;;;;;2.55;1.52;;;31.90;50.80;;;;;;5074404;28;20012;-77
2022/08/10 12:36:22;;;;;;;2.70;1.52;;;31.90;51.10;;;;;;5074134;28;20668;-78
2022/08/10 12:39:09;;;;;;;3.45;1.50;;;32.00;50.70;;;;;;5066942;28;20036;-78
2022/08/10 12:42:09;;;;;;;1.98;1.55;;;32.10;51.00;;;;;;5069683;28;20040;-77
2022/08/10 12:44:49;;;;;;;6.15;1.88;;;32.30;51.10;;;;;;5058528;28;20127;-76
2022/08/10 12:47:40;;;;;;;3.88;1.48;;;32.40;51.30;;;;;;5073859;28;20035;-77
2022/08/10 12:50:14;;;;;;;7.10;1.58;;;32.50;50.90;;;;;;5074130;28;20488;-76
2022/08/10 12:52:59;;;;;;;3.63;1.73;;;32.50;49.60;;;;;;5068902;28;20033;-76
2022/08/10 12:55:26;;;;;;;3.72;1.90;;;32.40;49.40;;;;;;5073302;28;20433;-77
2022/08/10 12:57:55;;;;;;;8.07;1.67;;;32.40;49.80;;;;;;5069673;28;20025;-76
2022/08/10 13:00:28;;;;;;;10.75;1.85;;;32.40;50.40;;;;;;5067458;28;20054;-76
2022/08/10 13:02:55;;;;;;;1.45;1.35;;;32.40;50.40;;;;;;5072668;28;20020;-76
2022/08/10 13:05:25;;;;;;;5.53;1.88;;;32.40;50.70;;;;;;5072858;28;20183;-77
2022/08/10 13:09:07;;;;;;;5.28;1.80;;;32.40;50.10;;;;;;5072598;28;20142;-76
2022/08/10 13:10:47;;;;;;;7.38;1.90;;;32.40;50.30;;;;;;5070967;28;20024;-77
2022/08/10 13:13:18;;;;;;;3.85;1.60;;;32.40;50.30;;;;;;5069126;28;20480;-76
2022/08/10 13:15:47;;;;;;;4.55;1.65;;;32.50;50.70;;;;;;5072867;28;20024;-77
2022/08/10 13:18:16;;;;;;;5.30;1.88;;;32.40;50.80;;;;;;5071581;28;20392;-76